Time;durP1;ratioP1;P1;durP2;ratioP2;P2;SDS_P1;SDS_P2;PMS_P1;PMS_P2;Temp;Humidity;BMP_temperature;BMP_pressure;BME280_temperature;BME280_humidity;BME280_pressure;Samples;Min_cycle;Max_cycle;Signal;HPM_P1;HPM_P2
2023/08/31 00:00:40;;;;;;;;;;;;;;;19.69;60.44;98938.69;10410899;28;1553;-68
2023/08/31 00:05:36;;;;;;;;;;;;;;;19.67;60.47;98936.16;10411892;28;833;-68
2023/08/31 00:10:32;;;;;;;;;;;;;;;19.66;60.38;98936.22;10412097;28;1897;-68
2023/08/31 00:15:32;;;;;;;;;;;;;;;19.66;60.47;98934.47;10411032;28;767;-68
2023/08/31 00:20:30;;;;;;;;;;;;;;;19.65;60.51;98926.63;10411930;28;852;-68
2023/08/31 00:25:26;;;;;;;;;;;;;;;19.65;60.60;98923.97;10410549;28;757;-68
2023/08/31 00:30:25;;;;;;;;;;;;;;;19.65;60.48;98929.25;10410840;28;1991;-68
2023/08/31 00:35:22;;;;;;;;;;;;;;;19.64;60.54;98927.53;10411458;28;805;-68
2023/08/31 00:40:18;;;;;;;;;;;;;;;19.65;60.60;98931.91;10410216;28;1558;-68
2023/08/31 00:45:14;;;;;;;;;;;;;;;19.63;60.43;98923.22;10409710;28;866;-68
2023/08/31 00:50:10;;;;;;;;;;;;;;;19.62;60.56;98927.66;10409435;28;1971;-68
2023/08/31 00:55:06;;;;;;;;;;;;;;;19.63;60.42;98925.84;10409531;28;852;-68
2023/08/31 01:00:03;;;;;;;;;;;;;;;19.61;60.45;98928.59;10409196;28;871;-68
2023/08/31 01:04:59;;;;;;;;;;;;;;;19.63;60.38;98939.06;10409016;28;884;-68
2023/08/31 01:09:55;;;;;;;;;;;;;;;19.63;60.33;98939.06;10409396;28;1897;-68
2023/08/31 01:14:51;;;;;;;;;;;;;;;19.62;60.51;98938.22;10408689;28;896;-68
2023/08/31 01:19:46;;;;;;;;;;;;;;;19.61;60.35;98939.16;10408521;28;802;-68
2023/08/31 01:24:42;;;;;;;;;;;;;;;19.61;60.49;98923.28;10408415;28;855;-68
2023/08/31 01:29:38;;;;;;;;;;;;;;;19.61;60.46;98939.16;10409118;28;1997;-68
2023/08/31 01:34:35;;;;;;;;;;;;;;;19.59;60.45;98941.03;10408086;28;816;-68
2023/08/31 01:39:31;;;;;;;;;;;;;;;19.60;60.46;98947.22;10407570;28;838;-68
2023/08/31 01:44:26;;;;;;;;;;;;;;;19.59;60.37;98942.84;10407308;28;1043;-68
2023/08/31 01:49:22;;;;;;;;;;;;;;;19.58;60.41;98943.81;10407726;28;1906;-68
2023/08/31 01:54:18;;;;;;;;;;;;;;;19.57;60.47;98947.38;10407924;28;813;-68
2023/08/31 01:59:14;;;;;;;;;;;;;;;19.56;60.43;98946.53;10408357;28;887;-68
2023/08/31 02:04:10;;;;;;;;;;;;;;;19.57;60.27;98950.00;10406868;28;1043;-69
2023/08/31 02:09:06;;;;;;;;;;;;;;;19.56;60.39;98950.97;10407376;28;1893;-68
2023/08/31 02:14:03;;;;;;;;;;;;;;;19.55;60.30;98946.66;10407907;28;770;-68
2023/08/31 02:18:59;;;;;;;;;;;;;;;19.55;60.47;98942.19;10408021;28;813;-68
2023/08/31 02:23:55;;;;;;;;;;;;;;;19.55;60.55;98944.84;10407137;28;771;-68
2023/08/31 02:28:51;;;;;;;;;;;;;;;19.56;60.27;98949.19;10407884;28;1115;-68
2023/08/31 02:33:47;;;;;;;;;;;;;;;19.56;60.41;98948.34;10407505;28;1909;-68
2023/08/31 02:38:43;;;;;;;;;;;;;;;19.55;60.41;98954.56;10407459;28;849;-68
2023/08/31 02:43:40;;;;;;;;;;;;;;;19.55;60.28;98959.88;10407394;28;903;-68
2023/08/31 02:48:36;;;;;;;;;;;;;;;19.53;60.43;98954.66;10407016;28;928;-68
2023/08/31 02:53:32;;;;;;;;;;;;;;;19.51;60.51;98953.91;10413604;28;1894;-68
2023/08/31 02:58:27;;;;;;;;;;;;;;;19.51;60.30;98953.06;10414716;28;1758;-68
2023/08/31 03:03:23;;;;;;;;;;;;;;;19.50;60.21;98946.94;10414959;28;928;-68
2023/08/31 03:08:19;;;;;;;;;;;;;;;19.50;60.24;98949.56;10413036;28;919;-68
2023/08/31 03:13:15;;;;;;;;;;;;;;;19.49;60.43;98947.84;10414064;28;1939;-68
2023/08/31 03:18:11;;;;;;;;;;;;;;;19.48;60.20;98954.94;10414795;28;864;-68
2023/08/31 03:23:07;;;;;;;;;;;;;;;19.48;60.20;98954.09;10413129;28;890;-68
2023/08/31 03:28:03;;;;;;;;;;;;;;;19.47;60.22;98955.06;10413039;28;1206;-68
2023/08/31 03:32:59;;;;;;;;;;;;;;;19.47;60.27;98968.28;10412670;28;1909;-68
2023/08/31 03:37:54;;;;;;;;;;;;;;;19.47;60.24;98966.47;10413377;28;918;-68
2023/08/31 03:42:50;;;;;;;;;;;;;;;19.47;60.23;98968.28;10412945;28;785;-68
2023/08/31 03:47:46;;;;;;;;;;;;;;;19.48;60.18;98970.81;10412815;28;846;-68
2023/08/31 03:52:42;;;;;;;;;;;;;;;19.49;60.03;98966.34;10411788;28;1897;-68
2023/08/31 03:57:38;;;;;;;;;;;;;;;19.49;60.07;98969.00;10412029;28;969;-68
2023/08/31 04:02:34;;;;;;;;;;;;;;;19.49;60.16;98975.16;10411800;28;901;-68
2023/08/31 04:07:30;;;;;;;;;;;;;;;19.49;59.96;98977.81;10411908;28;865;-68
2023/08/31 04:12:26;;;;;;;;;;;;;;;19.50;59.90;98981.28;10411033;28;1898;-68
2023/08/31 04:17:22;;;;;;;;;;;;;;;19.52;59.92;98981.19;10411681;28;829;-68
2023/08/31 04:22:18;;;;;;;;;;;;;;;19.52;59.91;98994.38;10410375;28;928;-68
2023/08/31 04:27:13;;;;;;;;;;;;;;;19.52;59.81;98991.75;10410445;28;942;-68
2023/08/31 04:32:09;;;;;;;;;;;;;;;19.52;59.92;98997.03;10410676;28;1954;-68
2023/08/31 04:37:05;;;;;;;;;;;;;;;19.52;59.75;99012.91;10410155;28;794;-68
2023/08/31 04:42:01;;;;;;;;;;;;;;;19.55;59.73;99021.50;10409912;28;866;-68
2023/08/31 04:46:57;;;;;;;;;;;;;;;19.55;59.75;99033.88;10410598;28;896;-68
2023/08/31 04:51:53;;;;;;;;;;;;;;;19.54;59.72;99017.13;10409976;28;1897;-68
2023/08/31 04:56:49;;;;;;;;;;;;;;;19.54;59.87;99027.72;10409361;28;931;-68
2023/08/31 05:01:45;;;;;;;;;;;;;;;19.53;59.77;99025.19;10409193;28;940;-68
2023/08/31 05:06:40;;;;;;;;;;;;;;;19.51;59.58;99027.91;10409080;28;809;-68
2023/08/31 05:11:36;;;;;;;;;;;;;;;19.51;59.84;99021.78;10408104;28;1946;-67
2023/08/31 05:16:32;;;;;;;;;;;;;;;19.53;59.84;99041.03;10408721;28;868;-68
2023/08/31 05:21:28;;;;;;;;;;;;;;;19.57;59.46;99043.41;10408717;28;836;-68
2023/08/31 05:26:24;;;;;;;;;;;;;;;19.58;59.41;99038.97;10408568;28;960;-68
2023/08/31 05:31:20;;;;;;;;;;;;;;;19.56;59.67;99052.25;10408122;28;1905;-68
2023/08/31 05:36:17;;;;;;;;;;;;;;;19.56;59.67;99046.97;10408299;28;1036;-68
2023/08/31 05:41:13;;;;;;;;;;;;;;;19.57;59.66;99058.41;10408218;28;942;-67
2023/08/31 05:46:08;;;;;;;;;;;;;;;19.56;59.60;99057.56;10408526;28;904;-67
2023/08/31 05:51:04;;;;;;;;;;;;;;;19.54;59.60;99066.53;10408352;28;1913;-68
2023/08/31 05:56:03;;;;;;;;;;;;;;;19.52;59.70;99065.75;10407673;28;770;-67
2023/08/31 06:00:59;;;;;;;;;;;;;;;19.50;59.61;99071.16;10407571;28;870;-65
2023/08/31 06:05:55;;;;;;;;;;;;;;;19.48;59.57;99075.69;10407432;28;874;-64
2023/08/31 06:10:51;;;;;;;;;;;;;;;19.47;59.53;99093.34;10407960;28;1905;-64
2023/08/31 06:15:47;;;;;;;;;;;;;;;19.45;59.40;99091.72;10407283;28;904;-68
2023/08/31 06:20:43;;;;;;;;;;;;;;;19.46;59.37;99096.91;10407447;28;976;-67
2023/08/31 06:25:39;;;;;;;;;;;;;;;19.47;59.18;99098.63;10412607;28;939;-68
2023/08/31 06:30:35;;;;;;;;;;;;;;;19.45;59.08;99095.22;10416058;28;1918;-68
2023/08/31 06:35:31;;;;;;;;;;;;;;;19.46;58.91;99096.91;10415469;28;810;-68
2023/08/31 06:40:27;;;;;;;;;;;;;;;19.48;59.03;99088.91;10414786;28;841;-67
2023/08/31 06:45:22;;;;;;;;;;;;;;;19.49;59.07;99102.03;10414913;28;775;-66
2023/08/31 06:50:18;;;;;;;;;;;;;;;19.48;59.42;99100.31;10414915;28;1978;-68
2023/08/31 06:55:14;;;;;;;;;;;;;;;19.45;59.32;99092.56;10415130;28;888;-68
2023/08/31 07:00:11;;;;;;;;;;;;;;;19.42;59.13;99098.06;10415288;28;876;-68
2023/08/31 07:05:07;;;;;;;;;;;;;;;19.41;59.23;99101.66;10413885;28;920;-68
2023/08/31 07:10:05;;;;;;;;;;;;;;;19.43;58.86;99102.38;10414164;28;1958;-70
2023/08/31 07:15:01;;;;;;;;;;;;;;;19.46;59.08;99102.19;10414052;28;845;-68
2023/08/31 07:19:57;;;;;;;;;;;;;;;19.45;58.74;99105.78;10413300;28;837;-67
2023/08/31 07:24:53;;;;;;;;;;;;;;;19.43;59.01;99115.59;10412456;28;948;-67
2023/08/31 07:29:48;;;;;;;;;;;;;;;19.46;58.98;99109.28;10412863;28;1925;-66
2023/08/31 07:34:44;;;;;;;;;;;;;;;19.44;59.09;99119.09;10412126;28;952;-68
2023/08/31 07:39:40;;;;;;;;;;;;;;;19.44;58.78;99112.03;10411905;28;880;-68
2023/08/31 07:44:36;;;;;;;;;;;;;;;19.44;58.64;99117.31;10412876;28;823;-68
2023/08/31 07:49:32;;;;;;;;;;;;;;;19.44;58.89;99119.97;10412637;28;1882;-68
2023/08/31 07:54:28;;;;;;;;;;;;;;;19.46;58.84;99120.69;10413112;28;841;-68
2023/08/31 07:59:24;;;;;;;;;;;;;;;19.47;59.00;99111.84;10411978;28;908;-67
2023/08/31 08:04:20;;;;;;;;;;;;;;;19.48;58.42;99117.97;10412375;28;846;-67
2023/08/31 08:09:17;;;;;;;;;;;;;;;19.48;58.90;99124.09;10411305;28;983;-67
2023/08/31 08:14:13;;;;;;;;;;;;;;;19.48;58.62;99139.13;10410744;28;1961;-67
2023/08/31 08:19:09;;;;;;;;;;;;;;;19.44;58.69;99138.47;10411575;28;815;-67
2023/08/31 08:24:05;;;;;;;;;;;;;;;19.50;58.53;99145.16;10411273;28;774;-67
2023/08/31 08:29:01;;;;;;;;;;;;;;;19.51;58.50;99138.09;10410839;28;1383;-67
2023/08/31 08:33:56;;;;;;;;;;;;;;;19.55;58.59;99134.31;10409617;28;1902;-67
2023/08/31 08:38:52;;;;;;;;;;;;;;;19.55;58.48;99151.03;10410154;28;844;-67
2023/08/31 08:43:48;;;;;;;;;;;;;;;19.60;58.24;99150.75;10409306;28;1316;-67
2023/08/31 08:48:44;;;;;;;;;;;;;;;19.59;58.13;99149.88;10408713;28;918;-66
2023/08/31 08:53:40;;;;;;;;;;;;;;;19.57;58.32;99156.22;10409527;28;1951;-67
2023/08/31 08:58:36;;;;;;;;;;;;;;;19.56;58.28;99159.81;10408717;28;868;-66
2023/08/31 09:03:32;;;;;;;;;;;;;;;19.57;58.56;99166.78;10409630;28;837;-66
2023/08/31 09:08:28;;;;;;;;;;;;;;;19.59;57.43;99157.81;10409559;28;908;-67
2023/08/31 09:13:24;;;;;;;;;;;;;;;19.59;57.83;99165.75;10409603;28;1954;-66
2023/08/31 09:18:20;;;;;;;;;;;;;;;19.64;57.94;99160.19;10408659;28;887;-65
2023/08/31 09:23:16;;;;;;;;;;;;;;;19.62;58.25;99159.44;10409384;28;833;-67
2023/08/31 09:28:12;;;;;;;;;;;;;;;19.62;58.18;99165.59;10408132;28;1104;-67
2023/08/31 09:33:09;;;;;;;;;;;;;;;19.62;58.05;99167.34;10408694;28;1902;-69
2023/08/31 09:38:05;;;;;;;;;;;;;;;19.64;57.98;99163.69;10408034;28;1128;-67
2023/08/31 09:43:00;;;;;;;;;;;;;;;19.65;58.06;99169.84;10407971;28;979;-67
2023/08/31 09:47:56;;;;;;;;;;;;;;;19.60;58.26;99169.25;10407895;28;1015;-67
2023/08/31 09:52:52;;;;;;;;;;;;;;;19.54;58.48;99180.19;10407728;28;1952;-67
2023/08/31 09:57:48;;;;;;;;;;;;;;;19.51;58.40;99175.09;10409299;28;904;-67
2023/08/31 10:02:44;;;;;;;;;;;;;;;19.51;58.46;99183.88;10416598;28;835;-67
2023/08/31 10:07:40;;;;;;;;;;;;;;;19.51;58.26;99180.38;10416667;28;931;-67
2023/08/31 10:12:36;;;;;;;;;;;;;;;19.54;58.06;99181.03;10415435;28;1890;-67
2023/08/31 10:17:32;;;;;;;;;;;;;;;19.51;57.75;99181.22;10416330;28;833;-67
2023/08/31 10:22:28;;;;;;;;;;;;;;;19.51;58.11;99178.56;10414975;28;889;-69
2023/08/31 10:27:23;;;;;;;;;;;;;;;19.53;57.62;99174.06;10414751;28;877;-67
2023/08/31 10:32:19;;;;;;;;;;;;;;;19.51;57.97;99177.72;10416143;28;1972;-67
2023/08/31 10:37:15;;;;;;;;;;;;;;;19.52;57.40;99171.50;10414911;28;886;-67
2023/08/31 10:42:11;;;;;;;;;;;;;;;19.57;57.25;99172.06;10414771;28;870;-67
2023/08/31 10:47:07;;;;;;;;;;;;;;;19.60;56.89;99164.81;10415054;28;892;-68
2023/08/31 10:52:03;;;;;;;;;;;;;;;19.68;56.84;99161.75;10413646;28;1945;-68
2023/08/31 10:57:05;;;;;;;;;;;;;;;19.70;56.30;99159.84;10414102;28;829;-68
2023/08/31 11:02:04;;;;;;;;;;;;;;;19.69;56.13;99163.44;10413911;28;930;-68
2023/08/31 11:07:00;;;;;;;;;;;;;;;19.70;56.59;99165.13;10414352;28;949;-65
2023/08/31 11:11:56;;;;;;;;;;;;;;;19.64;56.50;99165.47;10413195;28;1885;-64
2023/08/31 11:16:52;;;;;;;;;;;;;;;19.64;56.65;99173.41;10412849;28;1003;-64
2023/08/31 11:21:48;;;;;;;;;;;;;;;19.70;56.53;99167.78;10413883;28;861;-64
2023/08/31 11:26:44;;;;;;;;;;;;;;;19.72;56.77;99181.75;10413388;28;777;-64
2023/08/31 11:31:43;;;;;;;;;;;;;;;19.70;56.68;99168.66;10413725;28;1902;-64
2023/08/31 11:36:40;;;;;;;;;;;;;;;19.63;56.91;99169.06;10412614;28;776;-68
2023/08/31 11:41:40;;;;;;;;;;;;;;;19.62;56.72;99178.81;10411809;28;1125;-67
2023/08/31 11:46:36;;;;;;;;;;;;;;;19.65;56.33;99172.50;10411948;28;965;-68
2023/08/31 11:51:32;;;;;;;;;;;;;;;19.73;56.21;99170.25;10411961;28;1961;-67
2023/08/31 11:56:28;;;;;;;;;;;;;;;19.77;55.77;99163.81;10411749;28;842;-67
2023/08/31 12:01:24;;;;;;;;;;;;;;;19.81;55.81;99167.16;10412266;28;932;-69
2023/08/31 12:06:20;;;;;;;;;;;;;;;19.73;55.53;99174.66;10410848;28;1268;-69
2023/08/31 12:11:16;;;;;;;;;;;;;;;19.69;55.85;99176.66;10411162;28;1890;-69
2023/08/31 12:16:12;;;;;;;;;;;;;;;19.78;55.35;99178.75;10408183;28;1038;-69
2023/08/31 12:21:08;;;;;;;;;;;;;;;19.79;55.32;99182.25;10409693;28;1070;-69
2023/08/31 12:26:05;;;;;;;;;;;;;;;19.82;55.44;99179.41;10410189;28;842;-69
2023/08/31 12:31:01;;;;;;;;;;;;;;;19.79;55.63;99179.63;10409702;28;1905;-66
2023/08/31 12:35:57;;;;;;;;;;;;;;;19.78;55.54;99172.59;10410535;28;987;-66
2023/08/31 12:40:53;;;;;;;;;;;;;;;19.74;55.76;99177.25;10410075;28;839;-66
2023/08/31 12:45:49;;;;;;;;;;;;;;;19.78;55.62;99172.59;10410428;28;797;-66
2023/08/31 12:50:45;;;;;;;;;;;;;;;19.82;55.62;99166.19;10410140;28;1894;-66
2023/08/31 12:55:40;;;;;;;;;;;;;;;19.82;55.68;99151.16;10409067;28;885;-66
2023/08/31 13:00:36;;;;;;;;;;;;;;;19.75;55.86;99160.41;10408682;28;1066;-66
2023/08/31 13:05:32;;;;;;;;;;;;;;;19.74;55.88;99158.72;10408974;28;867;-66
2023/08/31 13:10:28;;;;;;;;;;;;;;;19.78;56.17;99167.31;10408908;28;1894;-66
2023/08/31 13:15:24;;;;;;;;;;;;;;;19.84;55.79;99173.09;10408521;28;908;-66
2023/08/31 13:20:20;;;;;;;;;;;;;;;19.92;55.82;99175.28;10409248;28;987;-66
2023/08/31 13:25:16;;;;;;;;;;;;;;;19.95;55.72;99177.72;10408280;28;872;-66
2023/08/31 13:30:12;;;;;;;;;;;;;;;20.00;55.42;99182.75;10408478;28;1905;-66
2023/08/31 13:35:08;;;;;;;;;;;;;;;20.02;55.22;99170.28;10408370;28;932;-66
2023/08/31 13:40:08;;;;;;;;;;;;;;;20.07;55.28;99184.91;10408281;28;933;-68
2023/08/31 13:45:04;;;;;;;;;;;;;;;20.13;55.05;99178.38;10407824;28;809;-69
2023/08/31 13:50:00;;;;;;;;;;;;;;;20.16;55.09;99186.13;10408154;28;1895;-69
2023/08/31 13:54:56;;;;;;;;;;;;;;;20.17;54.95;99189.63;10407515;28;840;-68
2023/08/31 13:59:52;;;;;;;;;;;;;;;20.20;55.01;99182.38;10407488;28;891;-68
2023/08/31 14:04:48;;;;;;;;;;;;;;;20.22;54.98;99182.25;10407571;28;950;-69
2023/08/31 14:09:44;;;;;;;;;;;;;;;20.24;55.11;99186.50;10408068;28;1889;-69
2023/08/31 14:14:41;;;;;;;;;;;;;;;20.29;55.13;99187.06;10407456;28;763;-69
2023/08/31 14:19:37;;;;;;;;;;;;;;;20.31;55.21;99177.25;10407204;28;878;-69
2023/08/31 14:24:33;;;;;;;;;;;;;;;20.30;55.30;99178.19;10407257;28;920;-69
2023/08/31 14:29:29;;;;;;;;;;;;;;;20.17;55.61;99179.03;10407484;28;1116;-69
2023/08/31 14:34:25;;;;;;;;;;;;;;;20.27;55.55;99175.72;10407199;28;1985;-69
2023/08/31 14:39:20;;;;;;;;;;;;;;;20.38;55.26;99166.25;10407378;28;901;-69
2023/08/31 14:44:16;;;;;;;;;;;;;;;20.41;55.34;99166.06;10409013;28;918;-69
2023/08/31 14:49:12;;;;;;;;;;;;;;;20.29;55.69;99181.78;10414599;28;834;-69
2023/08/31 14:54:08;;;;;;;;;;;;;;;20.16;56.03;99183.50;10415117;28;1897;-69
2023/08/31 14:59:04;;;;;;;;;;;;;;;20.20;55.95;99187.66;10414829;28;968;-69
2023/08/31 15:04:00;;;;;;;;;;;;;;;20.07;56.34;99190.22;10414014;28;991;-69
2023/08/31 15:08:56;;;;;;;;;;;;;;;20.04;56.37;99181.59;10413853;28;893;-69
2023/08/31 15:13:52;;;;;;;;;;;;;;;20.00;56.49;99180.94;10412988;28;1968;-68
2023/08/31 15:18:47;;;;;;;;;;;;;;;19.99;56.44;99189.84;10413429;28;1086;-69
2023/08/31 15:23:44;;;;;;;;;;;;;;;19.96;56.55;99228.81;10413295;28;805;-69
2023/08/31 15:28:40;;;;;;;;;;;;;;;19.92;56.52;99265.22;10413730;28;1100;-69
2023/08/31 15:33:36;;;;;;;;;;;;;;;19.87;56.72;99257.53;10413383;28;1921;-69
2023/08/31 15:38:32;;;;;;;;;;;;;;;19.87;56.60;99243.47;10413224;28;853;-69
2023/08/31 15:43:28;;;;;;;;;;;;;;;19.91;56.56;99245.84;10412302;28;846;-67
2023/08/31 15:48:24;;;;;;;;;;;;;;;19.91;56.70;99271.41;10412117;28;960;-67
2023/08/31 15:53:20;;;;;;;;;;;;;;;19.91;56.51;99272.28;10411973;28;1905;-67
2023/08/31 15:58:16;;;;;;;;;;;;;;;19.92;56.59;99270.50;10410633;28;928;-67
2023/08/31 16:03:11;;;;;;;;;;;;;;;19.95;56.70;99285.34;10411150;28;790;-67
2023/08/31 16:08:07;;;;;;;;;;;;;;;19.92;56.82;99283.72;10411475;28;861;-68
2023/08/31 16:13:03;;;;;;;;;;;;;;;19.92;56.77;99284.56;10411199;28;1941;-69
2023/08/31 16:17:59;;;;;;;;;;;;;;;19.93;57.03;99304.78;10412478;28;873;-69
2023/08/31 16:22:55;;;;;;;;;;;;;;;19.93;56.85;99317.16;10411528;28;833;-69
2023/08/31 16:27:51;;;;;;;;;;;;;;;19.93;56.88;99309.22;10410510;28;1168;-69
2023/08/31 16:32:47;;;;;;;;;;;;;;;19.92;56.93;99284.56;10411155;28;1977;-69
2023/08/31 16:37:43;;;;;;;;;;;;;;;19.90;56.88;99273.22;10410248;28;785;-69
2023/08/31 16:42:39;;;;;;;;;;;;;;;19.89;56.93;99271.53;10410641;28;858;-69
2023/08/31 16:47:35;;;;;;;;;;;;;;;19.90;57.12;99283.81;10410540;28;819;-70
2023/08/31 16:52:31;;;;;;;;;;;;;;;19.91;57.03;99287.28;10410274;28;1979;-69
2023/08/31 16:57:27;;;;;;;;;;;;;;;19.92;57.02;99292.50;10410687;28;854;-69
2023/08/31 17:02:23;;;;;;;;;;;;;;;19.92;57.16;99297.78;10409382;28;873;-69
2023/08/31 17:07:19;;;;;;;;;;;;;;;19.92;57.05;99311.00;10408286;28;926;-69
2023/08/31 17:12:14;;;;;;;;;;;;;;;19.91;57.19;99304.03;10408792;28;1950;-68
2023/08/31 17:17:10;;;;;;;;;;;;;;;19.88;57.31;99298.06;10409344;28;837;-68
2023/08/31 17:22:06;;;;;;;;;;;;;;;19.87;57.38;99296.38;10408685;28;918;-70
2023/08/31 17:27:02;;;;;;;;;;;;;;;19.91;57.37;99301.38;10409132;28;1019;-69
2023/08/31 17:31:58;;;;;;;;;;;;;;;19.92;57.13;99308.38;10408496;28;1913;-70
2023/08/31 17:36:54;;;;;;;;;;;;;;;19.94;57.34;99321.53;10408699;28;1190;-69
2023/08/31 17:41:50;;;;;;;;;;;;;;;19.94;57.36;99316.22;10408603;28;937;-69
2023/08/31 17:46:46;;;;;;;;;;;;;;;19.95;57.48;99311.78;10407870;28;775;-69
2023/08/31 17:51:44;;;;;;;;;;;;;;;19.94;57.44;99310.94;10407713;28;1901;-69
2023/08/31 17:56:40;;;;;;;;;;;;;;;19.92;57.59;99303.09;10408378;28;894;-69
2023/08/31 18:01:35;;;;;;;;;;;;;;;19.93;57.69;99318.00;10407076;28;920;-69
2023/08/31 18:06:31;;;;;;;;;;;;;;;19.95;57.72;99314.44;10408460;28;837;-69
2023/08/31 18:11:27;;;;;;;;;;;;;;;19.93;57.71;99309.22;10406815;28;1898;-69
2023/08/31 18:16:23;;;;;;;;;;;;;;;19.95;57.66;99322.38;10408069;28;799;-69
2023/08/31 18:21:19;;;;;;;;;;;;;;;19.96;57.61;99327.53;10412420;28;786;-69
2023/08/31 18:26:15;;;;;;;;;;;;;;;19.97;57.63;99328.44;10415579;28;863;-69
2023/08/31 18:31:11;;;;;;;;;;;;;;;19.97;57.85;99342.50;10415229;28;1906;-69
2023/08/31 18:36:08;;;;;;;;;;;;;;;19.97;57.87;99350.44;10415791;28;782;-68
2023/08/31 18:41:04;;;;;;;;;;;;;;;19.97;57.78;99354.88;10414303;28;925;-69
2023/08/31 18:46:00;;;;;;;;;;;;;;;19.95;57.90;99357.59;10415511;28;937;-69
2023/08/31 18:50:57;;;;;;;;;;;;;;;19.97;58.13;99357.53;10414440;28;1957;-68
2023/08/31 18:55:53;;;;;;;;;;;;;;;20.00;57.88;99366.13;10414363;28;1127;-68
2023/08/31 19:00:49;;;;;;;;;;;;;;;20.03;57.87;99373.88;10415083;28;916;-67
2023/08/31 19:05:46;;;;;;;;;;;;;;;20.01;57.98;99370.47;10414104;28;789;-67
2023/08/31 19:10:42;;;;;;;;;;;;;;;20.02;58.08;99361.59;10413690;28;1894;-67
2023/08/31 19:15:38;;;;;;;;;;;;;;;20.02;58.01;99371.34;10414272;28;805;-68
2023/08/31 19:20:34;;;;;;;;;;;;;;;19.99;58.27;99372.38;10413482;28;864;-68
2023/08/31 19:25:30;;;;;;;;;;;;;;;20.01;58.18;99375.75;10413907;28;837;-67
2023/08/31 19:30:26;;;;;;;;;;;;;;;19.99;58.03;99371.50;10411563;28;1975;-68
2023/08/31 19:35:22;;;;;;;;;;;;;;;20.00;58.21;99371.41;10413490;28;801;-67
2023/08/31 19:40:18;;;;;;;;;;;;;;;19.99;57.96;99364.44;10412760;28;954;-67
2023/08/31 19:45:17;;;;;;;;;;;;;;;20.00;58.14;99366.13;10411832;28;915;-68
2023/08/31 19:50:13;;;;;;;;;;;;;;;20.01;58.21;99354.59;10412808;28;1893;-68
2023/08/31 19:55:09;;;;;;;;;;;;;;;20.00;58.15;99352.03;10412185;28;842;-68
2023/08/31 20:00:06;;;;;;;;;;;;;;;20.00;58.13;99358.19;10412187;28;872;-69
2023/08/31 20:05:05;;;;;;;;;;;;;;;20.00;58.07;99355.53;10412445;28;854;-67
2023/08/31 20:10:02;;;;;;;;;;;;;;;20.00;58.12;99355.53;10412311;28;1947;-68
2023/08/31 20:14:58;;;;;;;;;;;;;;;20.01;58.22;99353.75;10411654;28;790;-67
2023/08/31 20:19:57;;;;;;;;;;;;;;;20.00;58.22;99358.19;10411127;28;805;-67
2023/08/31 20:24:53;;;;;;;;;;;;;;;20.01;58.01;99359.88;10410781;28;892;-68
2023/08/31 20:29:49;;;;;;;;;;;;;;;20.01;58.22;99364.31;10410873;28;1910;-68
2023/08/31 20:34:44;;;;;;;;;;;;;;;20.00;58.08;99379.34;10409799;28;814;-68
2023/08/31 20:39:43;;;;;;;;;;;;;;;19.99;58.23;99388.25;10410315;28;764;-68
2023/08/31 20:44:39;;;;;;;;;;;;;;;19.99;58.24;99388.25;10409950;28;901;-68
2023/08/31 20:49:35;;;;;;;;;;;;;;;19.99;58.44;99382.06;10410176;28;814;-68
2023/08/31 20:54:31;;;;;;;;;;;;;;;19.97;58.51;99381.34;10409501;28;1890;-68
2023/08/31 20:59:27;;;;;;;;;;;;;;;19.93;58.44;99384.13;10410153;28;889;-68
2023/08/31 21:04:23;;;;;;;;;;;;;;;19.95;58.52;99393.78;10410641;28;924;-68
2023/08/31 21:09:19;;;;;;;;;;;;;;;19.93;58.59;99393.88;10410594;28;919;-68
2023/08/31 21:14:15;;;;;;;;;;;;;;;19.93;58.59;99400.00;10409544;28;1894;-68
2023/08/31 21:19:11;;;;;;;;;;;;;;;19.91;58.75;99391.31;10408876;28;786;-68
2023/08/31 21:24:07;;;;;;;;;;;;;;;19.91;58.60;99385.16;10408878;28;827;-68
2023/08/31 21:29:03;;;;;;;;;;;;;;;19.92;58.71;99385.09;10408783;28;1076;-68
2023/08/31 21:33:59;;;;;;;;;;;;;;;19.93;58.58;99383.28;10408878;28;1969;-68
2023/08/31 21:38:54;;;;;;;;;;;;;;;19.92;58.48;99389.53;10409104;28;849;-68
2023/08/31 21:43:50;;;;;;;;;;;;;;;19.91;58.43;99378.09;10409011;28;857;-68
2023/08/31 21:48:46;;;;;;;;;;;;;;;19.90;58.64;99381.66;10408098;28;857;-68
2023/08/31 21:53:42;;;;;;;;;;;;;;;19.90;58.59;99392.25;10407287;28;1948;-68
2023/08/31 21:58:38;;;;;;;;;;;;;;;19.88;58.75;99386.19;10407788;28;882;-68
2023/08/31 22:03:36;;;;;;;;;;;;;;;19.89;58.75;99395.00;10407918;28;953;-68
2023/08/31 22:08:31;;;;;;;;;;;;;;;19.87;58.72;99397.72;10407632;28;771;-68
2023/08/31 22:13:27;;;;;;;;;;;;;;;19.87;58.73;99402.16;10406781;28;1894;-68
2023/08/31 22:18:23;;;;;;;;;;;;;;;19.87;58.60;99400.38;10408063;28;837;-68
2023/08/31 22:23:19;;;;;;;;;;;;;;;19.85;58.74;99394.31;10407241;28;945;-68
2023/08/31 22:28:15;;;;;;;;;;;;;;;19.84;58.67;99392.59;10406942;28;1306;-68
2023/08/31 22:33:11;;;;;;;;;;;;;;;19.85;58.66;99396.09;10407256;28;1897;-68
2023/08/31 22:38:07;;;;;;;;;;;;;;;19.85;58.71;99396.09;10406470;28;857;-68
2023/08/31 22:43:04;;;;;;;;;;;;;;;19.82;58.74;99394.47;10407234;28;806;-68
2023/08/31 22:48:00;;;;;;;;;;;;;;;19.83;58.66;99398.84;10407510;28;777;-68
2023/08/31 22:52:56;;;;;;;;;;;;;;;19.84;58.58;99394.41;10406808;28;1885;-68
2023/08/31 22:57:52;;;;;;;;;;;;;;;19.85;58.69;99396.09;10406103;28;963;-68
2023/08/31 23:02:48;;;;;;;;;;;;;;;19.84;58.67;99392.59;10407821;28;852;-68
2023/08/31 23:07:43;;;;;;;;;;;;;;;19.84;58.65;99394.41;10410161;28;855;-68
2023/08/31 23:12:39;;;;;;;;;;;;;;;19.82;58.72;99391.84;10413758;28;1906;-68
2023/08/31 23:17:35;;;;;;;;;;;;;;;19.83;58.74;99396.22;10412984;28;932;-68
2023/08/31 23:22:31;;;;;;;;;;;;;;;19.82;58.70;99391.00;10413458;28;900;-68
2023/08/31 23:27:30;;;;;;;;;;;;;;;19.81;58.76;99381.38;10413364;28;1012;-68
2023/08/31 23:32:26;;;;;;;;;;;;;;;19.80;58.62;99383.13;10412856;28;1906;-68
2023/08/31 23:37:22;;;;;;;;;;;;;;;19.80;58.60;99379.66;10412894;28;863;-68
2023/08/31 23:42:18;;;;;;;;;;;;;;;19.79;58.72;99381.44;10412724;28;979;-68
2023/08/31 23:47:14;;;;;;;;;;;;;;;19.79;58.58;99367.38;10412534;28;817;-68
2023/08/31 23:52:10;;;;;;;;;;;;;;;19.78;58.67;99377.09;10411576;28;1956;-68
2023/08/31 23:57:06;;;;;;;;;;;;;;;19.77;58.60;99356.88;10412643;28;1049;-68
